Ana Sayfa
METAR-TAF:

METAR-TAF

Havaalanları :

Şam Havalimanı

Şam, Suriye

Enlem: 33-25N, Boylam: 036-31E, yükseklik: 608 m

Güncel hava durumu gözlemi

Rapor saat 20:00 UTC de 34 dakika önce yapıldı.
Rüzgar güneybatıdan 12 kt
Sıcaklık 18°C
Nem 45%
Basınç 1014 hPa
Görüş mesafesi 10 km veya daha fazla
1500 m altında bulut yok ve kümülonimbus yok

METAR: OSDI 312000Z 23012KT CAVOK 18/06 Q1014

Saat: 23:34 (20:34 UTC)

Tahmin

Ayın 31'si saat 18 UTC'den ayın 01'si saat 24 UTC'ye kadar geçerli Tahmin
Rüzgar güneybatıdan 15 kt
Görüş mesafesi 10 km veya daha fazla
1500 m altında bulut yok ve kümülonimbus yok
Geçici
ayın 01'si saat 00 UTC'den ayın 01'si saat 09 UTC'ye kadar
Rüzgar değişken yönden 3 kt

TAF: OSDI 3118/0124 22015KT CAVOK TEMPO 0100/0109 VRB03KT

4.000'den fazla havaalanı için hava durumu gözlemleri ve tahminleri (METAR ve TAF raporları).

Kullanılabilir istasyonlar harita üzerinde sarı ve kırmızı noktalarla gösterilir.

İstasyonun adını görmek için fareyi noktanın üzerinde gezdirin.

Sonrasında hava gözlem ve tahminlerini görmek için tıklayın.

Haritayı değiştirmek için: yaklaştırmak için siyah artı işaretli yeşil düğmeye ve uzaklaştırmak için de eksi işaretli düğmeye hızla tıklayın; bitişik haritalar için yeşil okları kullanın.


METAR-TAF: